Station Historical Data
Daily Summary for January 21, 2017 Units:  Metric    English   Both
« Previous Day
Next Day »
Daily Weekly Monthly Yearly Custom
  High: Low: Average:
Temperature: 16.1 °C 4.2 °C 9.2 °C
Dew Point: 11.3 °C 3.5 °C 7.5 °C
Humidity: 97% 71% 90%
Wind Speed: 9.7km/h 0km/h 1.6km/h
Wind Gust: 20.9km/h - -
Wind- - SSE
Pressure: 1010.4 hPa 1004.6 hPa -
Precipitation: 0 mm    
Historical Graphs
 
 
Tabular Data for January 21, 2017
Time Temperature Dew Point Pressure Wind Wind Speed Wind Gust Humidity Rainfall Rate (Hourly)
00:04 5.4 °C 4.7 °C 1009 hPa WSW 8 km/h 14.5 km/h 95% 0 mm
00:09 5.3 °C 4.6 °C 1009 hPa WSW 9.7 km/h 17.7 km/h 95% 0 mm
00:14 5.2 °C 4.5 °C 1009.4 hPa WSW 9.7 km/h 20.9 km/h 95% 0 mm
00:19 5.2 °C 4.4 °C 1009.4 hPa SW 6.4 km/h 17.7 km/h 95% 0 mm
00:24 5.2 °C 4.4 °C 1009.4 hPa SSW 8 km/h 12.9 km/h 95% 0 mm
00:29 5.1 °C 4.3 °C 1009.4 hPa WSW 8 km/h 17.7 km/h 95% 0 mm
00:34 4.9 °C 4.2 °C 1009.4 hPa SW 4.8 km/h 14.5 km/h 95% 0 mm
00:39 4.8 °C 4.1 °C 1009.4 hPa SW 8 km/h 14.5 km/h 95% 0 mm
00:44 4.8 °C 4.1 °C 1009.4 hPa SW 8 km/h 14.5 km/h 95% 0 mm
00:49 4.7 °C 4 °C 1009.4 hPa WSW 8 km/h 14.5 km/h 95% 0 mm
00:54 4.7 °C 3.9 °C 1009.4 hPa SW 8 km/h 14.5 km/h 95% 0 mm
00:59 4.7 °C 4 °C 1009.4 hPa WSW 6.4 km/h 11.3 km/h 95% 0 mm
01:04 4.8 °C 4.1 °C 1009.7 hPa WSW 9.7 km/h 9.7 km/h 95% 0 mm
01:09 4.7 °C 4 °C 1009.7 hPa SSW 3.2 km/h 12.9 km/h 95% 0 mm
01:14 4.7 °C 4 °C 1009.7 hPa SW 8 km/h 12.9 km/h 95% 0 mm
01:19 4.7 °C 4 °C 1009.7 hPa SSW 6.4 km/h 9.7 km/h 95% 0 mm
01:24 4.7 °C 4 °C 1009.7 hPa SSW 8 km/h 11.3 km/h 95% 0 mm
01:29 4.7 °C 4 °C 1010 hPa SW 8 km/h 17.7 km/h 95% 0 mm
01:34 4.7 °C 4 °C 1010 hPa South 3.2 km/h 9.7 km/h 95% 0 mm
01:39 4.7 °C 3.9 °C 1010 hPa SW 6.4 km/h 9.7 km/h 95% 0 mm
01:44 4.6 °C 3.9 °C 1010 hPa SW 6.4 km/h 12.9 km/h 95% 0 mm
01:49 4.6 °C 3.8 °C 1010 hPa SW 6.4 km/h 12.9 km/h 95% 0 mm
01:54 4.4 °C 3.7 °C 1010 hPa SW 6.4 km/h 9.7 km/h 95% 0 mm
01:59 4.4 °C 3.7 °C 1010 hPa SW 4.8 km/h 9.7 km/h 95% 0 mm
02:04 4.3 °C 3.6 °C 1010 hPa SW 6.4 km/h 9.7 km/h 95% 0 mm
02:09 4.3 °C 3.6 °C 1010 hPa SW 4.8 km/h 11.3 km/h 95% 0 mm
02:14 4.3 °C 3.6 °C 1010.4 hPa SW 6.4 km/h 11.3 km/h 95% 0 mm
02:19 4.3 °C 3.6 °C 1010.4 hPa SW 6.4 km/h 11.3 km/h 95% 0 mm
02:24 4.2 °C 3.5 °C 1010.4 hPa SW 4.8 km/h 11.3 km/h 95% 0 mm
02:29 4.3 °C 3.6 °C 1010.4 hPa SW 8 km/h 8 km/h 95% 0 mm
02:34 4.3 °C 3.6 °C 1010.4 hPa WSW 4.8 km/h 8 km/h 95% 0 mm
02:39 4.3 °C 3.6 °C 1010.4 hPa SW 1.6 km/h 6.4 km/h 95% 0 mm
02:44 4.4 °C 3.7 °C 1010 hPa WSW 3.2 km/h 6.4 km/h 95% 0 mm
02:49 4.4 °C 3.7 °C 1010 hPa WSW 4.8 km/h 9.7 km/h 95% 0 mm
02:54 4.5 °C 3.8 °C 1010.4 hPa SW 4.8 km/h 9.7 km/h 95% 0 mm
02:59 4.6 °C 3.8 °C 1010.4 hPa SW 4.8 km/h 8 km/h 95% 0 mm
03:04 4.6 °C 4.1 °C 1010.4 hPa SW 9.7 km/h 11.3 km/h 96% 0 mm
03:09 4.7 °C 4.1 °C 1010.4 hPa WSW 6.4 km/h 11.3 km/h 96% 0 mm
03:14 4.7 °C 4.1 °C 1010.4 hPa WSW 4.8 km/h 9.7 km/h 96% 0 mm
03:19 4.8 °C 4.2 °C 1010.4 hPa WSW 4.8 km/h 11.3 km/h 96% 0 mm
03:24 4.8 °C 4.2 °C 1010 hPa WSW 6.4 km/h 11.3 km/h 96% 0 mm
03:29 4.8 °C 4.2 °C 1010 hPa SW 6.4 km/h 9.7 km/h 96% 0 mm
03:34 4.9 °C 4.3 °C 1010 hPa WSW 4.8 km/h 8 km/h 96% 0 mm
03:39 4.9 °C 4.3 °C 1010 hPa WSW 3.2 km/h 6.4 km/h 96% 0 mm
03:44 4.9 °C 4.3 °C 1010 hPa SW 4.8 km/h 8 km/h 96% 0 mm
03:49 5 °C 4.4 °C 1010 hPa SW 3.2 km/h 8 km/h 96% 0 mm
03:54 5.1 °C 4.4 °C 1010 hPa WSW 3.2 km/h 6.4 km/h 96% 0 mm
03:59 5.1 °C 4.5 °C 1010 hPa Calm   4.8 km/h 96% 0 mm
04:04 5.2 °C 4.6 °C 1010 hPa WSW 4.8 km/h 4.8 km/h 96% 0 mm
04:09 5.2 °C 4.6 °C 1010 hPa West 6.4 km/h 6.4 km/h 96% 0 mm
04:14 5.2 °C 4.6 °C 1010 hPa SW 3.2 km/h 6.4 km/h 96% 0 mm
04:19 5.3 °C 4.7 °C 1009.7 hPa SW 1.6 km/h 6.4 km/h 96% 0 mm
04:24 5.3 °C 4.7 °C 1009.7 hPa SSW 1.6 km/h 4.8 km/h 96% 0 mm
04:29 5.3 °C 4.7 °C 1009.7 hPa SSW 1.6 km/h 4.8 km/h 96% 0 mm
04:34 5.3 °C 4.7 °C 1009.7 hPa SSW 1.6 km/h 3.2 km/h 96% 0 mm
04:39 5.3 °C 4.7 °C 1009.7 hPa Calm   3.2 km/h 96% 0 mm
04:44 5.4 °C 4.8 °C 1009.7 hPa SSW 1.6 km/h 4.8 km/h 96% 0 mm
04:49 5.4 °C 4.8 °C 1009.7 hPa SSW 1.6 km/h 4.8 km/h 96% 0 mm
04:54 5.4 °C 4.8 °C 1009.4 hPa SSW 1.6 km/h 4.8 km/h 96% 0 mm
04:59 5.5 °C 4.9 °C 1009.4 hPa SSW 1.6 km/h 4.8 km/h 96% 0 mm
05:04 5.6 °C 4.9 °C 1009.4 hPa Calm   1.6 km/h 96% 0 mm
05:09 5.6 °C 5 °C 1009.7 hPa SW 3.2 km/h 4.8 km/h 96% 0 mm
05:14 5.7 °C 5.1 °C 1009.7 hPa SW 1.6 km/h 4.8 km/h 96% 0 mm
05:19 5.7 °C 5.1 °C 1009.7 hPa Calm   4.8 km/h 96% 0 mm
05:24 5.7 °C 5.1 °C 1009.7 hPa Calm     96% 0 mm
05:29 5.8 °C 5.2 °C 1009.4 hPa Calm     96% 0 mm
05:34 5.8 °C 5.2 °C 1009.4 hPa Calm     96% 0 mm
05:39 5.8 °C 5.2 °C 1009.4 hPa Calm     96% 0 mm
05:44 5.8 °C 5.2 °C 1009.7 hPa Calm     96% 0 mm
05:49 5.8 °C 5.2 °C 1009.7 hPa Calm     96% 0 mm
05:54 5.8 °C 5.2 °C 1009.7 hPa Calm     96% 0 mm
05:59 5.8 °C 5.2 °C 1010 hPa Calm     96% 0 mm
06:04 5.8 °C 5.2 °C 1009.7 hPa Calm     96% 0 mm
06:09 5.8 °C 5.2 °C 1009.7 hPa Calm     96% 0 mm
06:14 5.8 °C 5.2 °C 1009.7 hPa Calm     96% 0 mm
06:19 5.8 °C 5.2 °C 1009.4 hPa Calm     96% 0 mm
06:24 5.9 °C 5.3 °C 1009.7 hPa Calm     96% 0 mm
06:29 5.9 °C 5.3 °C 1009.7 hPa Calm     96% 0 mm
06:34 5.9 °C 5.3 °C 1009.7 hPa Calm     96% 0 mm
06:39 6 °C 5.4 °C 1009.7 hPa Calm     96% 0 mm
06:44 6 °C 5.4 °C 1009.4 hPa Calm     96% 0 mm
06:49 6.1 °C 5.4 °C 1009.4 hPa Calm     96% 0 mm
06:54 6.1 °C 5.4 °C 1009.4 hPa Calm     96% 0 mm
06:59 6.1 °C 5.4 °C 1009.4 hPa Calm     96% 0 mm
07:04 6.1 °C 5.5 °C 1009.4 hPa Calm     96% 0 mm
07:09 6.2 °C 5.6 °C 1009.4 hPa Calm     96% 0 mm
07:14 6.2 °C 5.6 °C 1009.4 hPa Calm     96% 0 mm
07:19 6.2 °C 5.6 °C 1009 hPa SSE 4.8 km/h 6.4 km/h 96% 0 mm
07:24 6.2 °C 5.6 °C 1009.4 hPa South 1.6 km/h 6.4 km/h 96% 0 mm
07:29 6.2 °C 5.6 °C 1009 hPa South 1.6 km/h 4.8 km/h 96% 0 mm
07:34 6.2 °C 5.6 °C 1009.4 hPa Calm     96% 0 mm
07:39 6.2 °C 5.6 °C 1009.4 hPa Calm     96% 0 mm
07:44 6.2 °C 5.6 °C 1009.4 hPa Calm     96% 0 mm
07:49 6.2 °C 5.6 °C 1009.4 hPa Calm     96% 0 mm
07:54 6.2 °C 5.6 °C 1009.4 hPa Calm     96% 0 mm
07:59 6.3 °C 5.7 °C 1009 hPa Calm     96% 0 mm
08:04 6.3 °C 5.7 °C 1009 hPa Calm     96% 0 mm
08:09 6.3 °C 5.7 °C 1008.7 hPa Calm     96% 0 mm
08:14 6.3 °C 5.7 °C 1008.7 hPa Calm     96% 0 mm
08:19 6.4 °C 5.8 °C 1009 hPa Calm     96% 0 mm
08:24 6.4 °C 5.8 °C 1009 hPa Calm     96% 0 mm
08:29 6.4 °C 5.8 °C 1009.4 hPa Calm     96% 0 mm
08:34 6.6 °C 5.9 °C 1009 hPa Calm     96% 0 mm
08:39 6.6 °C 6 °C 1009 hPa NE 3.2 km/h 6.4 km/h 96% 0 mm
08:44 6.7 °C 6.1 °C 1009 hPa Calm   4.8 km/h 96% 0 mm
08:49 6.8 °C 6.2 °C 1008.7 hPa NE 1.6 km/h 6.4 km/h 96% 0 mm
08:54 6.9 °C 6.4 °C 1008.7 hPa NE 3.2 km/h 6.4 km/h 97% 0 mm
08:59 6.9 °C 6.5 °C 1009 hPa NE 3.2 km/h 6.4 km/h 97% 0 mm
09:04 7.1 °C 6.5 °C 1009 hPa NE 1.6 km/h 6.4 km/h 96% 0 mm
09:09 7.2 °C 6.6 °C 1008.7 hPa ENE 1.6 km/h 6.4 km/h 96% 0 mm
09:14 7.2 °C 6.8 °C 1008.7 hPa Calm     97% 0 mm
09:19 7.3 °C 6.8 °C 1008.7 hPa Calm   3.2 km/h 97% 0 mm
09:24 7.3 °C 6.7 °C 1009 hPa SSE 3.2 km/h 4.8 km/h 96% 0 mm
09:29 7.4 °C 6.8 °C 1009 hPa Calm   3.2 km/h 96% 0 mm
09:34 7.4 °C 6.8 °C 1009 hPa Calm     96% 0 mm
09:39 7.7 °C 7.2 °C 1009 hPa Calm     97% 0 mm
09:44 7.7 °C 7.2 °C 1008.7 hPa Calm     97% 0 mm
09:49 7.7 °C 7.3 °C 1009 hPa Calm     97% 0 mm
09:54 7.7 °C 7.3 °C 1009 hPa Calm     97% 0 mm
09:59 8.1 °C 7.6 °C 1008.7 hPa Calm     97% 0 mm
10:04 8.2 °C 7.7 °C 1008.7 hPa Calm     97% 0 mm
10:09 8.2 °C 7.7 °C 1008.7 hPa Calm     97% 0 mm
10:14 8.3 °C 7.8 °C 1009 hPa Calm     97% 0 mm
10:19 8.3 °C 7.8 °C 1009 hPa Calm     97% 0 mm
10:24 8.8 °C 8.3 °C 1008.4 hPa Calm     97% 0 mm
10:29 9 °C 8.6 °C 1008.4 hPa NE 1.6 km/h 6.4 km/h 97% 0 mm
10:34 9.1 °C 8.7 °C 1008.4 hPa NE 3.2 km/h 6.4 km/h 97% 0 mm
10:39 9.3 °C 8.7 °C 1008 hPa NE 3.2 km/h 4.8 km/h 96% 0 mm
10:44 9.4 °C 8.8 °C 1008 hPa Calm   4.8 km/h 96% 0 mm
10:49 9.7 °C 8.9 °C 1008 hPa Calm     95% 0 mm
10:54 10.1 °C 9.1 °C 1008.4 hPa Calm     94% 0 mm
10:59 10.4 °C 9.3 °C 1008.4 hPa Calm     93% 0 mm
11:04 10.8 °C 9.4 °C 1008.4 hPa Calm     91% 0 mm
11:09 11.4 °C 9.7 °C 1008 hPa Calm     89% 0 mm
11:14 11.8 °C 9.9 °C 1008 hPa Calm     88% 0 mm
11:19 11.9 °C 9.8 °C 1008 hPa Calm     87% 0 mm
11:24 12 °C 9.7 °C 1007.7 hPa Calm     86% 0 mm
11:29 12 °C 9.7 °C 1008 hPa Calm   1.6 km/h 86% 0 mm
11:34 11.8 °C 9.6 °C 1007.7 hPa WSW 1.6 km/h 4.8 km/h 86% 0 mm
11:39 11.9 °C 9.6 °C 1007.7 hPa WSW 1.6 km/h 4.8 km/h 86% 0 mm
11:44 11.8 °C 9.6 °C 1007.7 hPa West 1.6 km/h 3.2 km/h 86% 0 mm
11:49 11.8 °C 9.4 °C 1007.7 hPa Calm   1.6 km/h 85% 0 mm
11:54 11.9 °C 9.5 °C 1007.7 hPa WSW 1.6 km/h 4.8 km/h 85% 0 mm
11:59 12 °C 9.6 °C 1007.7 hPa WSW 1.6 km/h 4.8 km/h 85% 0 mm
12:04 12 °C 9.6 °C 1007.7 hPa Calm   3.2 km/h 85% 0 mm
12:09 12.4 °C 10 °C 1007.3 hPa Calm     85% 0 mm
12:14 12.4 °C 9.8 °C 1007.3 hPa Calm     84% 0 mm
12:19 12.6 °C 10.1 °C 1007.3 hPa Calm     85% 0 mm
12:24 12.6 °C 9.9 °C 1007 hPa Calm     84% 0 mm
12:29 12.6 °C 10 °C 1006.7 hPa Calm     84% 0 mm
12:34 12.6 °C 10.2 °C 1006.7 hPa Calm     85% 0 mm
12:39 12.7 °C 10.1 °C 1006.7 hPa Calm     84% 0 mm
12:44 12.9 °C 10.1 °C 1006.7 hPa Calm     83% 0 mm
12:49 13.1 °C 10.3 °C 1006.7 hPa Calm   3.2 km/h 83% 0 mm
12:54 13.1 °C 10.3 °C 1006.7 hPa Calm     83% 0 mm
12:59 13.3 °C 10.3 °C 1006.7 hPa Calm     82% 0 mm
13:04 13.3 °C 10.1 °C 1006.7 hPa Calm     81% 0 mm
13:09 13.4 °C 10.6 °C 1006.3 hPa Calm     83% 0 mm
13:14 13.5 °C 10.3 °C 1006.3 hPa Calm     81% 0 mm
13:19 13.6 °C 10.6 °C 1006.3 hPa Calm     82% 0 mm
13:24 13.6 °C 10.4 °C 1006 hPa Calm     81% 0 mm
13:29 13.9 °C 10.5 °C 1006 hPa NE 1.6 km/h 6.4 km/h 80% 0 mm
13:34 14.2 °C 10.8 °C 1006 hPa East 1.6 km/h 6.4 km/h 80% 0 mm
13:39 14.2 °C 10.9 °C 1006 hPa SSE 1.6 km/h 3.2 km/h 81% 0 mm
13:44 14.3 °C 10.7 °C 1006 hPa East 1.6 km/h 4.8 km/h 79% 0 mm
13:49 14.5 °C 10.9 °C 1006 hPa ESE 1.6 km/h 4.8 km/h 79% 0 mm
13:54 14.7 °C 11.1 °C 1006 hPa ESE 1.6 km/h 8 km/h 79% 0 mm
13:59 14.6 °C 11 °C 1006 hPa SE 3.2 km/h 4.8 km/h 79% 0 mm
14:04 14.6 °C 10.8 °C 1006 hPa Calm   3.2 km/h 78% 0 mm
14:09 14.7 °C 10.9 °C 1006 hPa NE 3.2 km/h 4.8 km/h 78% 0 mm
14:14 14.7 °C 11.1 °C 1006 hPa SE 4.8 km/h 4.8 km/h 79% 0 mm
14:19 14.8 °C 11.2 °C 1005.6 hPa Calm   4.8 km/h 79% 0 mm
14:24 14.8 °C 11.2 °C 1005.6 hPa ENE 3.2 km/h 8 km/h 79% 0 mm
14:29 15.3 °C 11.3 °C 1005.6 hPa East 1.6 km/h 8 km/h 77% 0 mm
14:34 15.3 °C 10.9 °C 1005.6 hPa ESE 3.2 km/h 8 km/h 75% 0 mm
14:39 15.4 °C 11 °C 1005.6 hPa SE 3.2 km/h 9.7 km/h 75% 0 mm
14:44 15.4 °C 10.8 °C 1005.6 hPa ESE 3.2 km/h 9.7 km/h 74% 0 mm
14:49 15.9 °C 11.3 °C 1005.6 hPa ESE 3.2 km/h 8 km/h 74% 0 mm
14:54 15.9 °C 11.3 °C 1005.3 hPa SE 3.2 km/h 8 km/h 74% 0 mm
14:59 15.9 °C 10.6 °C 1005.3 hPa South 3.2 km/h 11.3 km/h 71% 0 mm
15:04 15.9 °C 10.6 °C 1005.3 hPa SSE 1.6 km/h 8 km/h 71% 0 mm
15:09 16.1 °C 11 °C 1005.3 hPa Calm   4.8 km/h 72% 0 mm
15:14 15.7 °C 10.7 °C 1005.3 hPa ESE 1.6 km/h 8 km/h 72% 0 mm
15:19 15.6 °C 10.7 °C 1005.3 hPa Calm   4.8 km/h 73% 0 mm
15:24 15.4 °C 10.6 °C 1005.3 hPa East 3.2 km/h 8 km/h 73% 0 mm
15:29 15.3 °C 10.5 °C 1005.3 hPa Calm   4.8 km/h 73% 0 mm
15:34 15.3 °C 10.5 °C 1005.3 hPa ESE 1.6 km/h 4.8 km/h 73% 0 mm
15:39 15.3 °C 10.5 °C 1005.3 hPa East 1.6 km/h 4.8 km/h 73% 0 mm
15:44 15.3 °C 10.4 °C 1005.3 hPa ENE 1.6 km/h 4.8 km/h 73% 0 mm
15:49 15.3 °C 10.5 °C 1005.3 hPa Calm   4.8 km/h 73% 0 mm
15:54 15.2 °C 10.6 °C 1005.3 hPa Calm   3.2 km/h 74% 0 mm
15:59 15 °C 10.4 °C 1005.3 hPa Calm     74% 0 mm
16:04 14.9 °C 10.3 °C 1005.3 hPa Calm     74% 0 mm
16:09 14.7 °C 10.3 °C 1005.3 hPa Calm     75% 0 mm
16:14 14.5 °C 10.3 °C 1005.3 hPa Calm     76% 0 mm
16:19 14.4 °C 10.2 °C 1005.3 hPa NE 3.2 km/h 4.8 km/h 76% 0 mm
16:24 14.3 °C 10.1 °C 1005 hPa NE 3.2 km/h 4.8 km/h 76% 0 mm
16:29 14.1 °C 10.1 °C 1005 hPa NE 3.2 km/h 4.8 km/h 77% 0 mm
16:34 14 °C 10.1 °C 1005 hPa NE 1.6 km/h 6.4 km/h 77% 0 mm
16:39 13.8 °C 10 °C 1005 hPa NE 3.2 km/h 6.4 km/h 78% 0 mm
16:44 13.7 °C 9.9 °C 1005 hPa NE 3.2 km/h 6.4 km/h 78% 0 mm
16:49 13.6 °C 9.8 °C 1005 hPa NE 3.2 km/h 6.4 km/h 78% 0 mm
16:54 13.5 °C 9.9 °C 1005 hPa NE 3.2 km/h 6.4 km/h 79% 0 mm
16:59 13.3 °C 9.8 °C 1005 hPa NE 1.6 km/h 6.4 km/h 79% 0 mm
17:04 13.3 °C 9.9 °C 1005 hPa NE 1.6 km/h 4.8 km/h 80% 0 mm
17:09 13.2 °C 10 °C 1005 hPa NE 3.2 km/h 4.8 km/h 81% 0 mm
17:14 13.2 °C 10 °C 1005 hPa NE 1.6 km/h 6.4 km/h 81% 0 mm
17:19 13.1 °C 10.1 °C 1005 hPa NE 1.6 km/h 4.8 km/h 82% 0 mm
17:24 13 °C 10 °C 1005 hPa NE 3.2 km/h 4.8 km/h 82% 0 mm
17:29 12.9 °C 9.9 °C 1005 hPa NE 1.6 km/h 4.8 km/h 82% 0 mm
17:34 12.8 °C 9.9 °C 1005 hPa Calm   4.8 km/h 83% 0 mm
17:39 12.7 °C 9.9 °C 1005 hPa NNE 1.6 km/h 4.8 km/h 83% 0 mm
17:44 12.6 °C 9.8 °C 1005 hPa Calm   3.2 km/h 83% 0 mm
17:49 12.4 °C 9.8 °C 1005 hPa NNE 1.6 km/h 3.2 km/h 84% 0 mm
17:54 12.4 °C 9.8 °C 1005 hPa North 1.6 km/h 4.8 km/h 84% 0 mm
17:59 12.6 °C 9.8 °C 1005.3 hPa NE 1.6 km/h 4.8 km/h 83% 0 mm
18:04 12.7 °C 9.9 °C 1005 hPa NE 1.6 km/h 4.8 km/h 83% 0 mm
18:09 12.7 °C 9.7 °C 1005.3 hPa NE 1.6 km/h 4.8 km/h 82% 0 mm
18:14 12.7 °C 9.7 °C 1005 hPa ENE 3.2 km/h 4.8 km/h 82% 0 mm
18:19 12.6 °C 9.6 °C 1005 hPa Calm   1.6 km/h 82% 0 mm
18:24 12.6 °C 9.6 °C 1005.3 hPa Calm     82% 0 mm
18:29 12.6 °C 9.6 °C 1005 hPa Calm     82% 0 mm
18:34 12.4 °C 9.4 °C 1005.3 hPa Calm     82% 0 mm
18:39 12.2 °C 9.4 °C 1005.3 hPa Calm     83% 0 mm
18:44 12 °C 9.4 °C 1005.3 hPa Calm     84% 0 mm
18:49 11.8 °C 9.2 °C 1005.3 hPa Calm     84% 0 mm
18:54 11.7 °C 9.4 °C 1005.3 hPa Calm     86% 0 mm
18:59 11.7 °C 9.3 °C 1005.3 hPa Calm     85% 0 mm
19:04 11.8 °C 9.4 °C 1005.3 hPa Calm     85% 0 mm
19:09 11.5 °C 9.1 °C 1005.3 hPa Calm     85% 0 mm
19:14 11.3 °C 9 °C 1005.3 hPa Calm     86% 0 mm
19:19 11.1 °C 9.1 °C 1005.3 hPa Calm     87% 0 mm
19:24 11 °C 8.9 °C 1005.6 hPa Calm     87% 0 mm
19:29 10.7 °C 8.7 °C 1005.6 hPa Calm     87% 0 mm
19:34 10.6 °C 8.7 °C 1005.6 hPa Calm     88% 0 mm
19:39 10.6 °C 8.8 °C 1005.3 hPa Calm     89% 0 mm
19:44 10.6 °C 8.9 °C 1005.6 hPa Calm     89% 0 mm
19:49 10.6 °C 8.8 °C 1005.3 hPa Calm     89% 0 mm
19:54 10.4 °C 8.7 °C 1005.3 hPa Calm     89% 0 mm
19:59 10.5 °C 8.9 °C 1005.3 hPa Calm     90% 0 mm
20:04 10.4 °C 8.8 °C 1005.3 hPa Calm     90% 0 mm
20:09 10.3 °C 8.8 °C 1005.3 hPa Calm     90% 0 mm
20:14 10.3 °C 8.7 °C 1005.3 hPa Calm     90% 0 mm
20:19 10.2 °C 8.7 °C 1005.3 hPa Calm     90% 0 mm
20:24 10.1 °C 8.5 °C 1005.3 hPa Calm     90% 0 mm
20:29 10 °C 8.6 °C 1005.3 hPa Calm     91% 0 mm
20:34 10 °C 8.6 °C 1005.3 hPa Calm     91% 0 mm
20:39 9.9 °C 8.5 °C 1005.3 hPa Calm     91% 0 mm
20:44 9.8 °C 8.4 °C 1005.3 hPa Calm     91% 0 mm
20:49 9.7 °C 8.3 °C 1005.3 hPa Calm     91% 0 mm
20:54 9.7 °C 8.4 °C 1005.3 hPa Calm     92% 0 mm
20:59 9.7 °C 8.4 °C 1005.3 hPa Calm     92% 0 mm
21:04 9.6 °C 8.3 °C 1005.3 hPa Calm     92% 0 mm
21:09 9.6 °C 8.3 °C 1005.6 hPa Calm     92% 0 mm
21:14 9.6 °C 8.3 °C 1005.6 hPa Calm     92% 0 mm
21:19 9.6 °C 8.3 °C 1005.6 hPa Calm     92% 0 mm
21:24 9.6 °C 8.3 °C 1005.6 hPa Calm     92% 0 mm
21:29 9.6 °C 8.5 °C 1005.6 hPa Calm     93% 0 mm
21:34 9.5 °C 8.4 °C 1005.6 hPa Calm     93% 0 mm
21:39 9.5 °C 8.4 °C 1005.6 hPa Calm     93% 0 mm
21:44 9.4 °C 8.2 °C 1005.3 hPa Calm     92% 0 mm
21:49 9.4 °C 8.4 °C 1005.3 hPa Calm     93% 0 mm
21:54 9.4 °C 8.4 °C 1005.3 hPa Calm     93% 0 mm
21:59 9.4 °C 8.4 °C 1005 hPa Calm     93% 0 mm
22:04 9.6 °C 8.5 °C 1005 hPa Calm     93% 0 mm
22:09 9.4 °C 8.4 °C 1005 hPa Calm     93% 0 mm
22:14 9.4 °C 8.3 °C 1005 hPa Calm     93% 0 mm
22:19 9.2 °C 7.9 °C 1005 hPa Calm     92% 0 mm
22:24 8.9 °C 7.9 °C 1005 hPa Calm     93% 0 mm
22:29 8.8 °C 7.8 °C 1005 hPa Calm     93% 0 mm
22:34 8.8 °C 7.7 °C 1005 hPa Calm     93% 0 mm
22:39 8.9 °C 7.8 °C 1005 hPa Calm     93% 0 mm
22:44 8.7 °C 7.7 °C 1005 hPa Calm     93% 0 mm
22:49 8.4 °C 7.3 °C 1005 hPa Calm     93% 0 mm
22:54 8.2 °C 7.2 °C 1005 hPa Calm     93% 0 mm
22:59 8.2 °C 7.1 °C 1005 hPa Calm     93% 0 mm
23:04 8.1 °C 7 °C 1005 hPa Calm     93% 0 mm
23:09 8 °C 7.1 °C 1005 hPa Calm     94% 0 mm
23:14 7.8 °C 6.9 °C 1005 hPa Calm     94% 0 mm
23:19 7.8 °C 6.9 °C 1005 hPa Calm     94% 0 mm
23:24 7.8 °C 6.9 °C 1005 hPa Calm     94% 0 mm
23:29 7.8 °C 6.9 °C 1005 hPa Calm     94% 0 mm
23:34 7.7 °C 6.8 °C 1004.6 hPa Calm     94% 0 mm
23:39 7.7 °C 6.8 °C 1005 hPa Calm     94% 0 mm
23:44 7.9 °C 7.2 °C 1005 hPa Calm     95% 0 mm
23:49 8.1 °C 7.3 °C 1005 hPa Calm     95% 0 mm
23:54 7.9 °C 7 °C 1005 hPa Calm     94% 0 mm
23:59 7.9 °C 7.2 °C 1005 hPa Calm     95% 0 mm
Buffalo, New York, USA
Compliments of Weather Underground - 2.5 mb